sensor_id;sensor_type;location;lat;lon;timestamp;pressure;altitude;pressure_sealevel;temperature
32039;BMP280;18549;42.286;22.688;2023-08-01T00:01:48;95268.91;;;25.86
32039;BMP280;18549;42.286;22.688;2023-08-01T00:04:15;95265.19;;;25.89
32039;BMP280;18549;42.286;22.688;2023-08-01T00:06:42;95262.81;;;25.87
32039;BMP280;18549;42.286;22.688;2023-08-01T00:09:08;95264.78;;;25.85
32039;BMP280;18549;42.286;22.688;2023-08-01T00:11:35;95265.97;;;25.83
32039;BMP280;18549;42.286;22.688;2023-08-01T00:14:02;95268.91;;;25.80
32039;BMP280;18549;42.286;22.688;2023-08-01T00:16:30;95259.91;;;25.78
32039;BMP280;18549;42.286;22.688;2023-08-01T00:18:57;95262.63;;;25.76
32039;BMP280;18549;42.286;22.688;2023-08-01T00:21:24;95260.09;;;25.76
32039;BMP280;18549;42.286;22.688;2023-08-01T00:23:51;95258.56;;;25.75
32039;BMP280;18549;42.286;22.688;2023-08-01T00:26:18;95253.88;;;25.72
32039;BMP280;18549;42.286;22.688;2023-08-01T00:28:45;95263.44;;;25.70
32039;BMP280;18549;42.286;22.688;2023-08-01T00:31:11;95264.62;;;25.68
32039;BMP280;18549;42.286;22.688;2023-08-01T00:33:39;95268.50;;;25.64
32039;BMP280;18549;42.286;22.688;2023-08-01T00:36:06;95262.06;;;25.61
32039;BMP280;18549;42.286;22.688;2023-08-01T00:38:35;95263.84;;;25.61
32039;BMP280;18549;42.286;22.688;2023-08-01T00:41:02;95261.47;;;25.59
32039;BMP280;18549;42.286;22.688;2023-08-01T00:43:28;95261.47;;;25.59
32039;BMP280;18549;42.286;22.688;2023-08-01T00:45:59;95265.38;;;25.55
32039;BMP280;18549;42.286;22.688;2023-08-01T00:48:27;95263.38;;;25.51
32039;BMP280;18549;42.286;22.688;2023-08-01T00:50:55;95254.81;;;25.52
32039;BMP280;18549;42.286;22.688;2023-08-01T00:53:22;95250.31;;;25.48
32039;BMP280;18549;42.286;22.688;2023-08-01T00:55:51;95251.87;;;25.42
32039;BMP280;18549;42.286;22.688;2023-08-01T00:58:17;95243.66;;;25.40
32039;BMP280;18549;42.286;22.688;2023-08-01T01:00:45;95241.53;;;25.37
32039;BMP280;18549;42.286;22.688;2023-08-01T01:03:11;95240.34;;;25.40
32039;BMP280;18549;42.286;22.688;2023-08-01T01:05:43;95232.56;;;25.41
32039;BMP280;18549;42.286;22.688;2023-08-01T01:08:15;95244.66;;;25.39
32039;BMP280;18549;42.286;22.688;2023-08-01T01:10:42;95245.06;;;25.36
32039;BMP280;18549;42.286;22.688;2023-08-01T01:13:09;95237.03;;;25.33
32039;BMP280;18549;42.286;22.688;2023-08-01T01:15:35;95240.94;;;25.35
32039;BMP280;18549;42.286;22.688;2023-08-01T01:18:02;95232.94;;;25.32
32039;BMP280;18549;42.286;22.688;2023-08-01T01:20:33;95240.75;;;25.30
32039;BMP280;18549;42.286;22.688;2023-08-01T01:23:01;95241.91;;;25.28
32039;BMP280;18549;42.286;22.688;2023-08-01T01:25:31;95240.34;;;25.20
32039;BMP280;18549;42.286;22.688;2023-08-01T01:27:59;95237.63;;;25.16
32039;BMP280;18549;42.286;22.688;2023-08-01T01:30:27;95233.12;;;25.11
32039;BMP280;18549;42.286;22.688;2023-08-01T01:32:55;95228.63;;;25.13
32039;BMP280;18549;42.286;22.688;2023-08-01T01:35:22;95232.34;;;25.11
32039;BMP280;18549;42.286;22.688;2023-08-01T01:37:50;95235.06;;;25.09
32039;BMP280;18549;42.286;22.688;2023-08-01T01:40:16;95240.31;;;25.08
32039;BMP280;18549;42.286;22.688;2023-08-01T01:42:44;95238.19;;;25.05
32039;BMP280;18549;42.286;22.688;2023-08-01T01:45:10;95239.94;;;25.04
32039;BMP280;18549;42.286;22.688;2023-08-01T01:47:37;95239.53;;;25.01
32039;BMP280;18549;42.286;22.688;2023-08-01T01:50:05;95235.22;;;25.01
32039;BMP280;18549;42.286;22.688;2023-08-01T01:52:31;95234.44;;;25.01
32039;BMP280;18549;42.286;22.688;2023-08-01T01:55:00;95239.72;;;24.99
32039;BMP280;18549;42.286;22.688;2023-08-01T01:57:27;95242.44;;;24.98
32039;BMP280;18549;42.286;22.688;2023-08-01T01:59:53;95243.78;;;24.94
32039;BMP280;18549;42.286;22.688;2023-08-01T02:02:20;95246.94;;;24.96
32039;BMP280;18549;42.286;22.688;2023-08-01T02:04:49;95243.41;;;24.90
32039;BMP280;18549;42.286;22.688;2023-08-01T02:07:16;95244.91;;;24.85
32039;BMP280;18549;42.286;22.688;2023-08-01T02:09:43;95246.66;;;24.84
32039;BMP280;18549;42.286;22.688;2023-08-01T02:12:11;95252.53;;;24.85
32039;BMP280;18549;42.286;22.688;2023-08-01T02:14:39;95242.94;;;24.81
32039;BMP280;18549;42.286;22.688;2023-08-01T02:17:06;95244.13;;;24.78
32039;BMP280;18549;42.286;22.688;2023-08-01T02:19:33;95243.53;;;24.76
32039;BMP280;18549;42.286;22.688;2023-08-01T02:22:00;95239.44;;;24.75
32039;BMP280;18549;42.286;22.688;2023-08-01T02:24:27;95248.97;;;24.73
32039;BMP280;18549;42.286;22.688;2023-08-01T02:26:54;95246.44;;;24.73
32039;BMP280;18549;42.286;22.688;2023-08-01T02:29:22;95247.78;;;24.69
32039;BMP280;18549;42.286;22.688;2023-08-01T02:31:49;95255.97;;;24.65
32039;BMP280;18549;42.286;22.688;2023-08-01T02:34:16;95255.00;;;24.66
32039;BMP280;18549;42.286;22.688;2023-08-01T02:36:42;95251.44;;;24.54
32039;BMP280;18549;42.286;22.688;2023-08-01T02:39:09;95248.88;;;24.48
32039;BMP280;18549;42.286;22.688;2023-08-01T02:41:36;95257.81;;;24.44
32039;BMP280;18549;42.286;22.688;2023-08-01T02:44:03;95268.94;;;24.43
32039;BMP280;18549;42.286;22.688;2023-08-01T02:46:31;95258.59;;;24.38
32039;BMP280;18549;42.286;22.688;2023-08-01T02:48:58;95263.41;;;24.33
32039;BMP280;18549;42.286;22.688;2023-08-01T02:51:23;95260.63;;;24.21
32039;BMP280;18549;42.286;22.688;2023-08-01T02:53:50;95265.44;;;24.10
32039;BMP280;18549;42.286;22.688;2023-08-01T02:56:17;95270.84;;;24.07
32039;BMP280;18549;42.286;22.688;2023-08-01T02:58:43;95266.34;;;24.03
32039;BMP280;18549;42.286;22.688;2023-08-01T03:01:10;95275.47;;;23.97
32039;BMP280;18549;42.286;22.688;2023-08-01T03:03:38;95270.41;;;23.97
32039;BMP280;18549;42.286;22.688;2023-08-01T03:06:06;95278.00;;;23.97
32039;BMP280;18549;42.286;22.688;2023-08-01T03:08:33;95280.53;;;23.97
32039;BMP280;18549;42.286;22.688;2023-08-01T03:11:00;95276.06;;;23.99
32039;BMP280;18549;42.286;22.688;2023-08-01T03:13:26;95274.47;;;23.98
32039;BMP280;18549;42.286;22.688;2023-08-01T03:15:53;95272.56;;;24.00
32039;BMP280;18549;42.286;22.688;2023-08-01T03:18:20;95276.06;;;23.99
32039;BMP280;18549;42.286;22.688;2023-08-01T03:20:48;95284.38;;;23.93
32039;BMP280;18549;42.286;22.688;2023-08-01T03:23:15;95272.50;;;23.87
32039;BMP280;18549;42.286;22.688;2023-08-01T03:25:41;95279.88;;;23.89
32039;BMP280;18549;42.286;22.688;2023-08-01T03:28:08;95278.13;;;23.89
32039;BMP280;18549;42.286;22.688;2023-08-01T03:30:35;95277.94;;;23.91
32039;BMP280;18549;42.286;22.688;2023-08-01T03:33:03;95277.94;;;23.91
32039;BMP280;18549;42.286;22.688;2023-08-01T03:35:30;95278.94;;;23.90
32039;BMP280;18549;42.286;22.688;2023-08-01T03:37:58;95293.91;;;23.91
32039;BMP280;18549;42.286;22.688;2023-08-01T03:40:25;95292.34;;;23.90
32039;BMP280;18549;42.286;22.688;2023-08-01T03:42:51;95280.84;;;23.88
32039;BMP280;18549;42.286;22.688;2023-08-01T03:45:18;95296.22;;;23.86
32039;BMP280;18549;42.286;22.688;2023-08-01T03:47:45;95282.97;;;23.84
32039;BMP280;18549;42.286;22.688;2023-08-01T03:50:12;95290.75;;;23.83
32039;BMP280;18549;42.286;22.688;2023-08-01T03:52:39;95291.28;;;23.79
32039;BMP280;18549;42.286;22.688;2023-08-01T03:55:08;95293.22;;;23.77
32039;BMP280;18549;42.286;22.688;2023-08-01T03:57:37;95293.59;;;23.74
32039;BMP280;18549;42.286;22.688;2023-08-01T04:00:05;95294.38;;;23.74
32039;BMP280;18549;42.286;22.688;2023-08-01T04:02:39;95289.13;;;23.76
32039;BMP280;18549;42.286;22.688;2023-08-01T04:05:06;95288.16;;;23.77
32039;BMP280;18549;42.286;22.688;2023-08-01T04:07:34;95290.87;;;23.75
32039;BMP280;18549;42.286;22.688;2023-08-01T04:10:01;95294.78;;;23.78
32039;BMP280;18549;42.286;22.688;2023-08-01T04:12:29;95290.09;;;23.75
32039;BMP280;18549;42.286;22.688;2023-08-01T04:14:56;95294.00;;;23.77
32039;BMP280;18549;42.286;22.688;2023-08-01T04:17:22;95294.59;;;23.79
32039;BMP280;18549;42.286;22.688;2023-08-01T04:19:49;95303.56;;;23.82
32039;BMP280;18549;42.286;22.688;2023-08-01T04:22:16;95294.22;;;23.82
32039;BMP280;18549;42.286;22.688;2023-08-01T04:24:43;95296.75;;;23.82
32039;BMP280;18549;42.286;22.688;2023-08-01T04:27:09;95294.22;;;23.82
32039;BMP280;18549;42.286;22.688;2023-08-01T04:29:37;95297.75;;;23.81
32039;BMP280;18549;42.286;22.688;2023-08-01T04:32:05;95298.09;;;23.78
32039;BMP280;18549;42.286;22.688;2023-08-01T04:34:32;95296.38;;;23.79
32039;BMP280;18549;42.286;22.688;2023-08-01T04:36:58;95295.38;;;23.80
32039;BMP280;18549;42.286;22.688;2023-08-01T04:39:25;95287.56;;;23.75
32039;BMP280;18549;42.286;22.688;2023-08-01T04:41:52;95290.47;;;23.72
32039;BMP280;18549;42.286;22.688;2023-08-01T04:44:19;95287.94;;;23.72
32039;BMP280;18549;42.286;22.688;2023-08-01T04:46:49;95287.72;;;23.67
32039;BMP280;18549;42.286;22.688;2023-08-01T04:49:15;95284.19;;;23.68
32039;BMP280;18549;42.286;22.688;2023-08-01T04:51:42;95277.31;;;23.62
32039;BMP280;18549;42.286;22.688;2023-08-01T04:54:09;95284.19;;;23.68
32039;BMP280;18549;42.286;22.688;2023-08-01T04:56:35;95278.16;;;23.69
32039;BMP280;18549;42.286;22.688;2023-08-01T04:59:02;95285.59;;;23.70
32039;BMP280;18549;42.286;22.688;2023-08-01T05:01:29;95283.47;;;23.74
32039;BMP280;18549;42.286;22.688;2023-08-01T05:03:57;95286.25;;;23.79
32039;BMP280;18549;42.286;22.688;2023-08-01T05:06:23;95280.19;;;23.80
32039;BMP280;18549;42.286;22.688;2023-08-01T05:08:50;95279.03;;;23.82
32039;BMP280;18549;42.286;22.688;2023-08-01T05:11:17;95275.56;;;23.83
32039;BMP280;18549;42.286;22.688;2023-08-01T05:13:43;95291.53;;;23.84
32039;BMP280;18549;42.286;22.688;2023-08-01T05:16:10;95291.91;;;23.81
32039;BMP280;18549;42.286;22.688;2023-08-01T05:18:37;95293.78;;;23.72
32039;BMP280;18549;42.286;22.688;2023-08-01T05:21:05;95297.06;;;23.73
32039;BMP280;18549;42.286;22.688;2023-08-01T05:23:32;95295.09;;;23.68
32039;BMP280;18549;42.286;22.688;2023-08-01T05:25:58;95295.69;;;23.70
32039;BMP280;18549;42.286;22.688;2023-08-01T05:28:25;95297.22;;;23.65
32039;BMP280;18549;42.286;22.688;2023-08-01T05:30:52;95295.88;;;23.69
32039;BMP280;18549;42.286;22.688;2023-08-01T05:33:18;95295.31;;;23.73
32039;BMP280;18549;42.286;22.688;2023-08-01T05:35:45;95298.06;;;23.72
32039;BMP280;18549;42.286;22.688;2023-08-01T05:38:13;95298.06;;;23.72
32039;BMP280;18549;42.286;22.688;2023-08-01T05:40:40;95298.06;;;23.72
32039;BMP280;18549;42.286;22.688;2023-08-01T05:43:06;95293.41;;;23.75
32039;BMP280;18549;42.286;22.688;2023-08-01T05:45:33;95291.84;;;23.74
32039;BMP280;18549;42.286;22.688;2023-08-01T05:48:00;95300.44;;;23.80
32039;BMP280;18549;42.286;22.688;2023-08-01T05:50:27;95298.28;;;23.77
32039;BMP280;18549;42.286;22.688;2023-08-01T05:52:54;95300.44;;;23.80
32039;BMP280;18549;42.286;22.688;2023-08-01T05:55:22;95294.66;;;23.85
32039;BMP280;18549;42.286;22.688;2023-08-01T05:57:49;95296.41;;;23.85
32039;BMP280;18549;42.286;22.688;2023-08-01T06:00:18;95296.81;;;23.88
32039;BMP280;18549;42.286;22.688;2023-08-01T06:02:44;95298.97;;;23.91
32039;BMP280;18549;42.286;22.688;2023-08-01T06:05:11;95281.47;;;23.96
32039;BMP280;18549;42.286;22.688;2023-08-01T06:07:38;95286.91;;;23.93
32039;BMP280;18549;42.286;22.688;2023-08-01T06:10:05;95287.34;;;23.97
32039;BMP280;18549;42.286;22.688;2023-08-01T06:12:33;95281.53;;;24.03
32039;BMP280;18549;42.286;22.688;2023-08-01T06:15:00;95283.28;;;24.02
32039;BMP280;18549;42.286;22.688;2023-08-01T06:17:27;95280.75;;;24.02
32039;BMP280;18549;42.286;22.688;2023-08-01T06:19:53;95280.31;;;23.92
32039;BMP280;18549;42.286;22.688;2023-08-01T06:22:20;95272.09;;;23.90
32039;BMP280;18549;42.286;22.688;2023-08-01T06:24:47;95275.84;;;23.94
32039;BMP280;18549;42.286;22.688;2023-08-01T06:27:14;95273.94;;;24.03
32039;BMP280;18549;42.286;22.688;2023-08-01T06:29:42;95276.06;;;23.99
32039;BMP280;18549;42.286;22.688;2023-08-01T06:32:09;95272.31;;;23.95
32039;BMP280;18549;42.286;22.688;2023-08-01T06:34:36;95270.22;;;23.99
32039;BMP280;18549;42.286;22.688;2023-08-01T06:37:03;95261.47;;;24.01
32039;BMP280;18549;42.286;22.688;2023-08-01T06:39:30;95269.06;;;24.01
32039;BMP280;18549;42.286;22.688;2023-08-01T06:41:57;95267.72;;;24.05
32039;BMP280;18549;42.286;22.688;2023-08-01T06:44:23;95259.22;;;24.13
32039;BMP280;18549;42.286;22.688;2023-08-01T06:46:51;95259.81;;;24.21
32039;BMP280;18549;42.286;22.688;2023-08-01T06:49:18;95261.25;;;24.30
32039;BMP280;18549;42.286;22.688;2023-08-01T06:51:45;95261.13;;;24.38
32039;BMP280;18549;42.286;22.688;2023-08-01T06:54:11;95258.00;;;24.36
32039;BMP280;18549;42.286;22.688;2023-08-01T06:56:38;95260.34;;;24.44
32039;BMP280;18549;42.286;22.688;2023-08-01T06:59:05;95255.28;;;24.44
32039;BMP280;18549;42.286;22.688;2023-08-01T07:01:32;95252.97;;;24.42
32039;BMP280;18549;42.286;22.688;2023-08-01T07:04:01;95249.84;;;24.40
32039;BMP280;18549;42.286;22.688;2023-08-01T07:06:28;95254.91;;;24.47
32039;BMP280;18549;42.286;22.688;2023-08-01T07:08:55;95258.28;;;24.53
32039;BMP280;18549;42.286;22.688;2023-08-01T07:11:23;95249.88;;;24.53
32039;BMP280;18549;42.286;22.688;2023-08-01T07:13:49;95258.50;;;24.58
32039;BMP280;18549;42.286;22.688;2023-08-01T07:16:16;95254.22;;;24.65
32039;BMP280;18549;42.286;22.688;2023-08-01T07:18:43;95255.63;;;24.74
32039;BMP280;18549;42.286;22.688;2023-08-01T07:21:11;95250.75;;;24.79
32039;BMP280;18549;42.286;22.688;2023-08-01T07:23:38;95248.03;;;24.87
32039;BMP280;18549;42.286;22.688;2023-08-01T07:26:05;95248.03;;;24.87
32039;BMP280;18549;42.286;22.688;2023-08-01T07:28:32;95243.38;;;24.84
32039;BMP280;18549;42.286;22.688;2023-08-01T07:30:59;95240.66;;;24.92
32039;BMP280;18549;42.286;22.688;2023-08-01T07:33:26;95239.13;;;24.91
32039;BMP280;18549;42.286;22.688;2023-08-01T07:35:53;95245.75;;;24.98
32039;BMP280;18549;42.286;22.688;2023-08-01T07:38:21;95250.06;;;25.04
32039;BMP280;18549;42.286;22.688;2023-08-01T07:40:48;95234.28;;;25.09
32039;BMP280;18549;42.286;22.688;2023-08-01T07:43:15;95233.72;;;25.13
32039;BMP280;18549;42.286;22.688;2023-08-01T07:45:41;95236.22;;;25.07
32039;BMP280;18549;42.286;22.688;2023-08-01T07:48:08;95235.66;;;25.18
32039;BMP280;18549;42.286;22.688;2023-08-01T07:50:35;95232.53;;;25.28
32039;BMP280;18549;42.286;22.688;2023-08-01T07:53:01;95225.13;;;25.46
32039;BMP280;18549;42.286;22.688;2023-08-01T07:55:33;95222.25;;;25.55
32039;BMP280;18549;42.286;22.688;2023-08-01T07:58:00;95221.66;;;25.66
32039;BMP280;18549;42.286;22.688;2023-08-01T08:00:27;95230.22;;;25.72
32039;BMP280;18549;42.286;22.688;2023-08-01T08:02:53;95218.91;;;25.81
32039;BMP280;18549;42.286;22.688;2023-08-01T08:05:20;95215.75;;;25.85
32039;BMP280;18549;42.286;22.688;2023-08-01T08:07:51;95213.81;;;25.93
32039;BMP280;18549;42.286;22.688;2023-08-01T08:10:18;95214.16;;;26.03
32039;BMP280;18549;42.286;22.688;2023-08-01T08:12:46;95207.91;;;26.12
32039;BMP280;18549;42.286;22.688;2023-08-01T08:15:12;95198.13;;;26.22
32039;BMP280;18549;42.286;22.688;2023-08-01T08:17:41;95199.09;;;26.21
32039;BMP280;18549;42.286;22.688;2023-08-01T08:20:08;95197.31;;;26.34
32039;BMP280;18549;42.286;22.688;2023-08-01T08:22:35;95191.41;;;26.40
32039;BMP280;18549;42.286;22.688;2023-08-01T08:25:01;95198.81;;;26.48
32039;BMP280;18549;42.286;22.688;2023-08-01T08:27:28;95191.78;;;26.50
32039;BMP280;18549;42.286;22.688;2023-08-01T08:29:56;95184.34;;;26.49
32039;BMP280;18549;42.286;22.688;2023-08-01T08:32:23;95183.75;;;26.47
32039;BMP280;18549;42.286;22.688;2023-08-01T08:34:50;95181.16;;;26.59
32039;BMP280;18549;42.286;22.688;2023-08-01T08:37:16;95180.09;;;26.73
32039;BMP280;18549;42.286;22.688;2023-08-01T08:39:43;95179.50;;;26.84
32039;BMP280;18549;42.286;22.688;2023-08-01T08:42:10;95168.06;;;26.93
32039;BMP280;18549;42.286;22.688;2023-08-01T08:44:42;95166.84;;;27.02
32039;BMP280;18549;42.286;22.688;2023-08-01T08:47:11;95171.09;;;27.08
32039;BMP280;18549;42.286;22.688;2023-08-01T08:49:39;95168.31;;;27.16
32039;BMP280;18549;42.286;22.688;2023-08-01T08:52:07;95158.06;;;27.22
32039;BMP280;18549;42.286;22.688;2023-08-01T08:54:35;95155.28;;;27.30
32039;BMP280;18549;42.286;22.688;2023-08-01T08:57:04;95151.91;;;27.36
32039;BMP280;18549;42.286;22.688;2023-08-01T08:59:32;95154.41;;;27.42
32039;BMP280;18549;42.286;22.688;2023-08-01T09:01:59;95152.50;;;27.38
32039;BMP280;18549;42.286;22.688;2023-08-01T09:04:30;95151.41;;;27.52
32039;BMP280;18549;42.286;22.688;2023-08-01T09:07:02;95150.72;;;27.62
32039;BMP280;18549;42.286;22.688;2023-08-01T09:09:29;95150.47;;;27.64
32039;BMP280;18549;42.286;22.688;2023-08-01T09:11:55;95141.59;;;27.73
32039;BMP280;18549;42.286;22.688;2023-08-01T09:14:22;95130.13;;;27.82
32039;BMP280;18549;42.286;22.688;2023-08-01T09:16:49;95135.72;;;27.90
32039;BMP280;18549;42.286;22.688;2023-08-01T09:19:17;95133.81;;;27.86
32039;BMP280;18549;42.286;22.688;2023-08-01T09:21:46;95133.16;;;27.96
32039;BMP280;18549;42.286;22.688;2023-08-01T09:24:14;95129.16;;;28.00
32039;BMP280;18549;42.286;22.688;2023-08-01T09:26:41;95121.44;;;28.07
32039;BMP280;18549;42.286;22.688;2023-08-01T09:29:08;95120.59;;;28.13
32039;BMP280;18549;42.286;22.688;2023-08-01T09:31:36;95120.81;;;28.11
32039;BMP280;18549;42.286;22.688;2023-08-01T09:34:04;95117.63;;;28.16
32039;BMP280;18549;42.286;22.688;2023-08-01T09:36:32;95115.56;;;28.24
32039;BMP280;18549;42.286;22.688;2023-08-01T09:39:02;95117.81;;;28.32
32039;BMP280;18549;42.286;22.688;2023-08-01T09:41:29;95111.62;;;28.39
32039;BMP280;18549;42.286;22.688;2023-08-01T09:43:56;95116.53;;;28.41
32039;BMP280;18549;42.286;22.688;2023-08-01T09:46:24;95108.44;;;28.44
32039;BMP280;18549;42.286;22.688;2023-08-01T09:48:51;95104.69;;;28.46
32039;BMP280;18549;42.286;22.688;2023-08-01T09:51:18;95102.00;;;28.41
32039;BMP280;18549;42.286;22.688;2023-08-01T09:53:49;95104.41;;;28.54
32039;BMP280;18549;42.286;22.688;2023-08-01T09:56:20;95097.78;;;28.64
32039;BMP280;18549;42.286;22.688;2023-08-01T09:58:48;95094.47;;;28.75
32039;BMP280;18549;42.286;22.688;2023-08-01T10:01:15;95094.47;;;28.75
32039;BMP280;18549;42.286;22.688;2023-08-01T10:03:46;95084.63;;;28.79
32039;BMP280;18549;42.286;22.688;2023-08-01T10:06:14;95078.06;;;28.83
32039;BMP280;18549;42.286;22.688;2023-08-01T10:08:44;95064.13;;;28.85
32039;BMP280;18549;42.286;22.688;2023-08-01T10:11:11;95067.88;;;28.94
32039;BMP280;18549;42.286;22.688;2023-08-01T10:13:41;95061.34;;;28.87
32039;BMP280;18549;42.286;22.688;2023-08-01T10:16:08;95050.38;;;28.86
32039;BMP280;18549;42.286;22.688;2023-08-01T10:18:36;95047.72;;;28.92
32039;BMP280;18549;42.286;22.688;2023-08-01T10:21:04;95041.63;;;28.93
32039;BMP280;18549;42.286;22.688;2023-08-01T10:23:32;95035.28;;;28.96
32039;BMP280;18549;42.286;22.688;2023-08-01T10:26:00;95031.75;;;28.97
32039;BMP280;18549;42.286;22.688;2023-08-01T10:28:31;95022.88;;;28.99
32039;BMP280;18549;42.286;22.688;2023-08-01T10:31:08;95017.66;;;29.06
32039;BMP280;18549;42.286;22.688;2023-08-01T10:33:36;95013.69;;;29.21
32039;BMP280;18549;42.286;22.688;2023-08-01T10:36:12;95007.81;;;29.21
32039;BMP280;18549;42.286;22.688;2023-08-01T10:38:45;95003.81;;;29.24
32039;BMP280;18549;42.286;22.688;2023-08-01T10:41:19;94999.81;;;29.28
32039;BMP280;18549;42.286;22.688;2023-08-01T10:43:45;95001.37;;;29.29
32039;BMP280;18549;42.286;22.688;2023-08-01T10:46:14;94997.47;;;29.38
32039;BMP280;18549;42.286;22.688;2023-08-01T10:48:51;94989.00;;;29.49
32039;BMP280;18549;42.286;22.688;2023-08-01T10:51:18;95000.69;;;29.45
32039;BMP280;18549;42.286;22.688;2023-08-01T10:53:45;94991.56;;;29.49
32039;BMP280;18549;42.286;22.688;2023-08-01T10:56:16;94985.87;;;29.58
32039;BMP280;18549;42.286;22.688;2023-08-01T10:58:44;94985.31;;;29.68
32039;BMP280;18549;42.286;22.688;2023-08-01T11:01:11;94975.75;;;29.75
32039;BMP280;18549;42.286;22.688;2023-08-01T11:03:39;94981.13;;;29.89
32039;BMP280;18549;42.286;22.688;2023-08-01T11:06:07;94975.88;;;29.96
32039;BMP280;18549;42.286;22.688;2023-08-01T11:08:34;94969.53;;;29.98
32039;BMP280;18549;42.286;22.688;2023-08-01T11:11:01;94966.00;;;29.99
32039;BMP280;18549;42.286;22.688;2023-08-01T11:13:28;94962.50;;;30.05
32039;BMP280;18549;42.286;22.688;2023-08-01T11:15:55;94950.91;;;30.14
32039;BMP280;18549;42.286;22.688;2023-08-01T11:18:22;94948.03;;;30.22
32039;BMP280;18549;42.286;22.688;2023-08-01T11:20:50;94955.91;;;30.37
32039;BMP280;18549;42.286;22.688;2023-08-01T11:23:17;94950.88;;;30.42
32039;BMP280;18549;42.286;22.688;2023-08-01T11:25:44;94946.53;;;30.42
32039;BMP280;18549;42.286;22.688;2023-08-01T11:28:16;94942.59;;;30.51
32039;BMP280;18549;42.286;22.688;2023-08-01T11:30:43;94941.81;;;30.51
32039;BMP280;18549;42.286;22.688;2023-08-01T11:33:14;94937.31;;;30.57
32039;BMP280;18549;42.286;22.688;2023-08-01T11:35:41;94932.41;;;30.56
32039;BMP280;18549;42.286;22.688;2023-08-01T11:38:09;94934.81;;;30.62
32039;BMP280;18549;42.286;22.688;2023-08-01T11:40:36;94930.88;;;30.71
32039;BMP280;18549;42.286;22.688;2023-08-01T11:43:03;94931.81;;;30.65
32039;BMP280;18549;42.286;22.688;2023-08-01T11:45:30;94914.38;;;30.62
32039;BMP280;18549;42.286;22.688;2023-08-01T11:47:57;94912.13;;;30.66
32039;BMP280;18549;42.286;22.688;2023-08-01T11:50:25;94914.53;;;30.72
32039;BMP280;18549;42.286;22.688;2023-08-01T11:52:52;94914.63;;;30.77
32039;BMP280;18549;42.286;22.688;2023-08-01T11:55:22;94914.81;;;30.92
32039;BMP280;18549;42.286;22.688;2023-08-01T11:57:53;94904.09;;;30.95
32039;BMP280;18549;42.286;22.688;2023-08-01T12:00:24;94903.75;;;31.08
32039;BMP280;18549;42.286;22.688;2023-08-01T12:02:51;94902.16;;;31.23
32039;BMP280;18549;42.286;22.688;2023-08-01T12:05:22;94903.59;;;31.35
32039;BMP280;18549;42.286;22.688;2023-08-01T12:07:49;94895.75;;;31.42
32039;BMP280;18549;42.286;22.688;2023-08-01T12:10:16;94896.41;;;31.32
32039;BMP280;18549;42.286;22.688;2023-08-01T12:12:46;94898.34;;;31.47
32039;BMP280;18549;42.286;22.688;2023-08-01T12:15:13;94900.19;;;31.51
32039;BMP280;18549;42.286;22.688;2023-08-01T12:17:40;94889.78;;;31.57
32039;BMP280;18549;42.286;22.688;2023-08-01T12:20:08;94882.94;;;31.68
32039;BMP280;18549;42.286;22.688;2023-08-01T12:22:35;94880.19;;;31.74
32039;BMP280;18549;42.286;22.688;2023-08-01T12:25:02;94873.22;;;31.70
32039;BMP280;18549;42.286;22.688;2023-08-01T12:27:29;94865.31;;;31.71
32039;BMP280;18549;42.286;22.688;2023-08-01T12:29:57;94860.38;;;31.65
32039;BMP280;18549;42.286;22.688;2023-08-01T12:32:23;94865.47;;;31.60
32039;BMP280;18549;42.286;22.688;2023-08-01T12:34:50;94861.16;;;31.39
32039;BMP280;18549;42.286;22.688;2023-08-01T12:37:17;94852.88;;;31.32
32039;BMP280;18549;42.286;22.688;2023-08-01T12:39:43;94865.56;;;31.23
32039;BMP280;18549;42.286;22.688;2023-08-01T12:42:10;94852.22;;;31.21
32039;BMP280;18549;42.286;22.688;2023-08-01T12:44:37;94852.34;;;31.09
32039;BMP280;18549;42.286;22.688;2023-08-01T12:47:05;94845.44;;;31.10
32039;BMP280;18549;42.286;22.688;2023-08-01T12:49:33;94845.19;;;31.32
32039;BMP280;18549;42.286;22.688;2023-08-01T12:52:03;94830.91;;;31.36
32039;BMP280;18549;42.286;22.688;2023-08-01T12:54:29;94838.97;;;31.50
32039;BMP280;18549;42.286;22.688;2023-08-01T12:56:56;94843.72;;;31.62
32039;BMP280;18549;42.286;22.688;2023-08-01T12:59:23;94831.50;;;31.74
32039;BMP280;18549;42.286;22.688;2023-08-01T13:01:49;94833.69;;;31.82
32039;BMP280;18549;42.286;22.688;2023-08-01T13:04:18;94826.88;;;31.97
32039;BMP280;18549;42.286;22.688;2023-08-01T13:06:44;94834.06;;;31.95
32039;BMP280;18549;42.286;22.688;2023-08-01T13:09:11;94818.91;;;31.94
32039;BMP280;18549;42.286;22.688;2023-08-01T13:11:38;94817.72;;;32.06
32039;BMP280;18549;42.286;22.688;2023-08-01T13:14:05;94814.94;;;32.13
32039;BMP280;18549;42.286;22.688;2023-08-01T13:16:31;94809.03;;;32.07
32039;BMP280;18549;42.286;22.688;2023-08-01T13:18:58;94811.47;;;31.97
32039;BMP280;18549;42.286;22.688;2023-08-01T13:21:26;94810.41;;;31.89
32039;BMP280;18549;42.286;22.688;2023-08-01T13:23:53;94806.09;;;31.94
32039;BMP280;18549;42.286;22.688;2023-08-01T13:26:19;94802.87;;;32.13
32039;BMP280;18549;42.286;22.688;2023-08-01T13:28:46;94801.78;;;32.35
32039;BMP280;18549;42.286;22.688;2023-08-01T13:31:13;94799.03;;;32.47
32039;BMP280;18549;42.286;22.688;2023-08-01T13:33:39;94800.09;;;32.56
32039;BMP280;18549;42.286;22.688;2023-08-01T13:36:06;94803.78;;;32.69
32039;BMP280;18549;42.286;22.688;2023-08-01T13:38:34;94806.34;;;32.74
32039;BMP280;18549;42.286;22.688;2023-08-01T13:41:01;94787.44;;;32.85
32039;BMP280;18549;42.286;22.688;2023-08-01T13:43:28;94788.00;;;32.97
32039;BMP280;18549;42.286;22.688;2023-08-01T13:45:54;94787.50;;;33.05
32039;BMP280;18549;42.286;22.688;2023-08-01T13:48:21;94771.84;;;33.11
32039;BMP280;18549;42.286;22.688;2023-08-01T13:50:48;94784.47;;;33.27
32039;BMP280;18549;42.286;22.688;2023-08-01T13:53:14;94789.91;;;33.36
32039;BMP280;18549;42.286;22.688;2023-08-01T13:55:44;94793.53;;;33.50
32039;BMP280;18549;42.286;22.688;2023-08-01T13:58:11;94802.03;;;33.65